Vieux-Fort の空港の天気 - METARとTAF

ヘウノラ国際空港 ( TLPL / UVF ) - セントルシア Vieux-Fort
飛行場実況気象(Metar)
観測時間12/16 03:00 AST (12/16 07:00 UTC)
風向・風速東 10m/s
視程10km以上
天気現象
全天の4割程度の雲 雲底高度 700m
気温27℃
湿度79%
気圧1013hPa
METARTLPL 160700Z 09019KT 9999 SCT023 27/23 Q1013 NOSIG
過去の天気等 Google飛行場航空写真 Wunderground天気予報

過去48時間のMETAR

飛行場予報(TAF)
発表時間: 12/16 01:00 AST (12/16 05:00 UTC)
予報対象時間: 16日2時 AST ~ 17日2時 AST
風向・風速東 9m/s
視程10km以上
全天の4割程度の雲 雲底高度 670m
16日8時 AST ~ 16日20時 AST に一時的に
視程5000m
天気現象しゅう雨
全天の8割程度の雲 雲底高度 460m
TAF TLPL 160500Z 1606/1706 08018KT 9999 SCT022
TEMPO 1612/1624 5000 SHRA BKN015